Home   Weather   Germany   Bremen   Past weeks
Flag for Germany

Past Weather in Bremen, Bremen, Germany — Yesterday and Last 2 Weeks

Currently: 59 °F. Clear. (Weather station: Bremen Airport, Germany). See more current weather

Past Weather in Bremen — Graph

°F

Bremen Temperature Yesterday

Maximum temperature yesterday: 75 °F (at 4:20 pm)
Minimum temperature yesterday: 59 °F (at 3:50 am)
Average temperature yesterday: 66 °F

High & Low Weather Summary for the Past Weeks

 TemperatureHumidityPressure
High82 °F (Jul 24, 3:50 pm)100% (Jul 15, 3:50 am)30.21 "Hg (Jul 15, 3:50 am)
Low50 °F (Jul 23, 2:50 am)42% (Jul 26, 4:20 pm)29.71 "Hg (Jul 24, 7:50 pm)
Average67 °F76%29.99 "Hg
* Reported Jul 14 1:20 am — Jul 29 1:20 am, Bremen. Weather by CustomWeather, © 2021

Note: Actual official high and low records may vary slightly from our data, if they occured in-between our weather recording intervals... More about our weather records

Bremen Weather History for the Previous 24 Hours

Scroll right to see more
 ConditionsComfort  
Time TempWeatherWind HumidityBarometerVisibility
1:20 am
Thu, Jul 29
57 °FPassing clouds.7 mph94%29.77 "HgN/A
12:50 am57 °FPassing clouds.6 mph94%29.77 "HgN/A
12:20 am59 °FClear.5 mph88%29.77 "Hg10 mi
11:50 pm
Wed, Jul 28
59 °FPassing clouds.6 mph94%29.80 "HgN/A
11:20 pm59 °FClear.7 mph94%29.80 "Hg10 mi
10:50 pm61 °FClear.9 mph88%29.80 "Hg10 mi
10:20 pm61 °FPassing clouds.8 mph88%29.80 "HgN/A
9:50 pm61 °FScattered showers. Passing clouds.6 mph88%29.80 "HgN/A
9:20 pm63 °FSprinkles. Scattered clouds.21 mph83%29.80 "HgN/A
8:50 pm68 °FPassing clouds.8 mph64%29.77 "HgN/A
8:20 pm70 °FPassing clouds.12 mph57%29.77 "HgN/A
7:50 pm70 °FPassing clouds.20 mph57%29.77 "HgN/A
7:20 pm72 °FPassing clouds.13 mph53%29.77 "HgN/A
6:50 pm72 °FSunny.16 mph53%29.74 "Hg10 mi
6:20 pm73 °FPassing clouds.12 mph50%29.74 "HgN/A
5:50 pm73 °FPassing clouds.15 mph47%29.74 "HgN/A
5:20 pm75 °FPassing clouds.18 mph47%29.74 "HgN/A
4:50 pm75 °FPassing clouds.18 mph47%29.74 "HgN/A
4:20 pm75 °FPassing clouds.17 mph54%29.77 "HgN/A
3:50 pm73 °FPassing clouds.14 mph61%29.77 "HgN/A
3:20 pm70 °FPassing clouds.9 mph78%29.77 "HgN/A
2:50 pm68 °FPassing clouds.9 mph83%29.77 "HgN/A
2:20 pm63 °FRain showers. Scattered clouds.10 mph88%29.77 "Hg4 mi
1:50 pm64 °FSprinkles. Partly sunny.16 mph88%29.77 "Hg3 mi
1:20 pm72 °FScattered showers. Partly sunny.13 mph61%29.77 "HgN/A
12:50 pm72 °FScattered clouds.14 mph61%29.77 "HgN/A
12:20 pm72 °FScattered clouds.14 mph65%29.77 "HgN/A
11:50 am70 °FPartly sunny.13 mph69%29.77 "HgN/A
11:20 am72 °FScattered clouds.14 mph65%29.80 "HgN/A
10:50 am68 °FScattered clouds.14 mph69%29.80 "HgN/A
10:20 am68 °FScattered clouds.13 mph69%29.80 "HgN/A
9:50 am68 °FScattered clouds.13 mph69%29.80 "HgN/A
9:20 am66 °FScattered clouds.13 mph73%29.80 "HgN/A
8:50 am64 °FBroken clouds.13 mph83%29.80 "HgN/A
8:20 am63 °FScattered clouds.12 mph88%29.80 "HgN/A
7:50 am63 °FPassing clouds.9 mph88%29.80 "HgN/A
7:20 am63 °FPassing clouds.8 mph88%29.80 "HgN/A
6:50 am61 °FScattered clouds.7 mph94%29.80 "HgN/A
6:20 am61 °FScattered clouds.7 mph94%29.80 "HgN/A
5:50 am59 °FSunny.5 mph94%29.80 "Hg10 mi
5:20 am59 °FClear.5 mph94%29.80 "Hg10 mi
4:50 am59 °FClear.6 mph94%29.80 "Hg10 mi
4:20 am59 °FClear.5 mph94%29.80 "Hg10 mi
3:50 am59 °FClear.6 mph94%29.80 "Hg10 mi
3:20 am61 °FPassing clouds.7 mph88%29.80 "HgN/A
2:50 am61 °FPassing clouds.6 mph88%29.80 "HgN/A
2:20 am61 °FPassing clouds.6 mph88%29.83 "HgN/A
Weather by CustomWeather, © 2021

See weather overview